createdAt,value
2023-05-08T00:00:00.438Z,100625.23
2023-05-08T00:02:27.267Z,100630.62
2023-05-08T00:04:54.221Z,100624.52
2023-05-08T00:07:20.976Z,100626.98
2023-05-08T00:09:47.723Z,100623.42
2023-05-08T00:12:14.444Z,100622.54
2023-05-08T00:14:41.189Z,100624.21
2023-05-08T00:17:08.098Z,100627.81
2023-05-08T00:19:34.823Z,100626.21
2023-05-08T00:22:01.535Z,100625.70
2023-05-08T00:24:28.303Z,100621.11
2023-05-08T00:26:54.959Z,100623.14
2023-05-08T00:29:21.640Z,100623.70
2023-05-08T00:31:48.581Z,100624.05
2023-05-08T00:34:15.372Z,100621.38
2023-05-08T00:36:42.043Z,100622.63
2023-05-08T00:39:08.681Z,100620.67
2023-05-08T00:41:35.479Z,100620.86
2023-05-08T00:44:02.604Z,100618.92
2023-05-08T00:46:29.351Z,100620.40
2023-05-08T00:48:56.013Z,100625.10
2023-05-08T00:51:23.462Z,100628.58
2023-05-08T00:53:50.063Z,100632.95
2023-05-08T00:56:17.055Z,100635.64
2023-05-08T00:58:43.867Z,100638.31
2023-05-08T01:01:10.905Z,100636.85
2023-05-08T01:03:38.008Z,100635.77
2023-05-08T01:06:05.201Z,100640.78
2023-05-08T01:08:32.064Z,100642.81
2023-05-08T01:11:16.166Z,100644.45
2023-05-08T01:13:58.104Z,100643.56
2023-05-08T01:16:46.968Z,100648.93
2023-05-08T01:19:51.539Z,100649.82
2023-05-08T01:22:43.404Z,100655.12
2023-05-08T01:25:30.145Z,100660.51
2023-05-08T01:28:24.090Z,100662.46
2023-05-08T01:30:56.957Z,100664.61
2023-05-08T01:33:46.099Z,100667.15
2023-05-08T01:36:17.556Z,100670.39
2023-05-08T01:38:54.108Z,100670.75
2023-05-08T01:41:26.194Z,100672.55
2023-05-08T01:44:18.337Z,100674.16
2023-05-08T01:46:46.888Z,100676.70
2023-05-08T01:49:23.529Z,100673.17
2023-05-08T01:51:56.987Z,100672.56
2023-05-08T01:54:25.434Z,100672.79
2023-05-08T01:56:53.224Z,100673.95
2023-05-08T01:59:21.267Z,100680.42
2023-05-08T02:01:48.494Z,100681.55
2023-05-08T02:04:15.611Z,100682.14
2023-05-08T02:06:42.492Z,100685.94
2023-05-08T02:09:09.782Z,100687.56
2023-05-08T02:13:10.557Z,100693.39
2023-05-08T02:15:38.131Z,100690.95
2023-05-08T02:18:07.873Z,100694.71
2023-05-08T02:20:34.740Z,100695.83
2023-05-08T02:23:01.610Z,100699.82
2023-05-08T02:25:28.367Z,100696.64
2023-05-08T02:27:55.112Z,100698.96
2023-05-08T02:30:22.096Z,100694.92
2023-05-08T02:32:48.926Z,100700.60
2023-05-08T02:35:17.286Z,100701.73
2023-05-08T02:37:45.358Z,100704.06
2023-05-08T02:40:12.409Z,100708.56
2023-05-08T02:42:39.339Z,100711.65
2023-05-08T02:45:06.934Z,100713.09
2023-05-08T02:47:38.179Z,100717.75
2023-05-08T02:50:36.652Z,100720.49
2023-05-08T02:53:05.368Z,100725.14
2023-05-08T02:55:53.857Z,100723.72
2023-05-08T02:58:24.570Z,100733.31
2023-05-08T03:00:58.908Z,100737.04
2023-05-08T03:03:27.617Z,100735.04
2023-05-08T03:05:55.696Z,100739.13
2023-05-08T03:08:30.689Z,100743.39
2023-05-08T03:10:59.226Z,100746.79
2023-05-08T03:13:28.304Z,100757.20
2023-05-08T03:15:57.232Z,100756.89
2023-05-08T03:18:28.707Z,100762.86
2023-05-08T03:20:56.349Z,100761.74
2023-05-08T03:23:23.683Z,100765.97
2023-05-08T03:25:50.436Z,100771.65
2023-05-08T03:28:17.319Z,100771.63
2023-05-08T03:30:44.138Z,100776.97
2023-05-08T03:33:13.385Z,100778.41
2023-05-08T03:35:40.096Z,100777.38
2023-05-08T03:38:08.243Z,100780.95
2023-05-08T03:40:38.615Z,100780.23
2023-05-08T03:43:08.709Z,100781.50
2023-05-08T03:45:36.996Z,100783.27
2023-05-08T03:48:05.544Z,100785.73
2023-05-08T03:50:35.578Z,100786.20
2023-05-08T03:53:02.608Z,100785.80
2023-05-08T03:55:30.826Z,100789.67
2023-05-08T03:58:08.897Z,100791.60
2023-05-08T04:00:58.115Z,100796.91
2023-05-08T04:03:41.368Z,100801.55
2023-05-08T04:06:14.522Z,100803.29
2023-05-08T04:08:55.618Z,100806.63
2023-05-08T04:11:30.423Z,100805.30
2023-05-08T04:14:03.572Z,100799.70
2023-05-08T04:16:32.356Z,100801.47
2023-05-08T04:19:02.201Z,100805.73
2023-05-08T04:21:29.519Z,100804.38
2023-05-08T04:23:56.424Z,100804.51
2023-05-08T04:26:23.284Z,100801.35
2023-05-08T04:28:50.707Z,100805.58
2023-05-08T04:31:18.196Z,100803.78
2023-05-08T04:33:45.022Z,100803.20
2023-05-08T04:36:13.569Z,100806.02
2023-05-08T04:38:41.175Z,100807.27
2023-05-08T04:41:08.515Z,100810.46
2023-05-08T04:43:36.065Z,100814.86
2023-05-08T04:46:03.257Z,100810.84
2023-05-08T04:48:33.140Z,100811.84
2023-05-08T04:51:00.334Z,100817.27
2023-05-08T04:53:27.317Z,100818.84
2023-05-08T04:55:54.036Z,100819.23
2023-05-08T04:58:20.744Z,100821.73
2023-05-08T05:00:47.508Z,100823.81
2023-05-08T05:03:14.319Z,100825.41
2023-05-08T05:05:41.247Z,100827.14
2023-05-08T05:08:08.049Z,100825.77
2023-05-08T05:10:34.846Z,100827.46
2023-05-08T05:13:01.649Z,100827.16
2023-05-08T05:15:28.516Z,100829.18
2023-05-08T05:17:55.412Z,100827.27
2023-05-08T05:20:22.400Z,100827.30
2023-05-08T05:22:49.458Z,100822.95
2023-05-08T05:25:16.288Z,100825.06
2023-05-08T05:27:43.284Z,100825.81
2023-05-08T05:30:10.942Z,100826.02
2023-05-08T05:32:37.956Z,100826.05
2023-05-08T05:35:05.356Z,100822.05
2023-05-08T05:37:32.318Z,100819.91
2023-05-08T05:39:59.039Z,100821.16
2023-05-08T05:42:26.015Z,100823.23
2023-05-08T05:44:53.866Z,100824.35
2023-05-08T05:47:20.673Z,100825.45
2023-05-08T05:49:47.408Z,100825.77
2023-05-08T05:52:15.068Z,100819.34
2023-05-08T05:54:42.734Z,100822.46
2023-05-08T05:57:09.632Z,100822.65
2023-05-08T05:59:36.374Z,100818.95
2023-05-08T06:02:03.736Z,100814.98
2023-05-08T06:04:30.675Z,100814.19
2023-05-08T06:06:57.428Z,100811.52
2023-05-08T06:09:24.108Z,100806.81
2023-05-08T06:11:51.525Z,100807.30
2023-05-08T06:14:18.431Z,100801.30
2023-05-08T06:16:45.435Z,100806.44
2023-05-08T06:19:12.192Z,100810.02
2023-05-08T06:21:39.889Z,100810.27
2023-05-08T06:24:07.838Z,100809.45
2023-05-08T06:26:34.600Z,100804.58
2023-05-08T06:29:01.444Z,100803.23
2023-05-08T06:31:28.190Z,100801.61
2023-05-08T06:33:55.031Z,100797.95
2023-05-08T06:36:21.741Z,100798.77
2023-05-08T06:38:48.431Z,100798.32
2023-05-08T06:41:15.515Z,100796.70
2023-05-08T06:43:42.235Z,100799.95
2023-05-08T06:46:09.041Z,100791.88
2023-05-08T06:48:35.783Z,100796.09
2023-05-08T06:51:02.712Z,100801.45
2023-05-08T06:53:29.367Z,100802.56
2023-05-08T06:55:57.948Z,100796.71
2023-05-08T06:58:24.780Z,100804.14
2023-05-08T07:00:51.413Z,100802.94
2023-05-08T07:03:18.085Z,100802.06
2023-05-08T07:05:44.808Z,100802.86
2023-05-08T07:08:11.466Z,100803.21
2023-05-08T07:10:38.186Z,100804.73
2023-05-08T07:13:04.967Z,100803.15
2023-05-08T07:15:32.301Z,100803.48
2023-05-08T07:17:58.994Z,100803.09
2023-05-08T07:20:25.925Z,100803.23
2023-05-08T07:22:52.760Z,100794.05
2023-05-08T07:25:19.447Z,100798.05
2023-05-08T07:27:46.228Z,100794.09
2023-05-08T07:30:13.203Z,100793.98
2023-05-08T07:32:40.192Z,100797.45
2023-05-08T07:35:11.139Z,100795.42
2023-05-08T07:37:39.466Z,100799.98
2023-05-08T07:40:08.981Z,100794.04
2023-05-08T07:42:40.461Z,100797.23
2023-05-08T07:45:08.990Z,100794.27
2023-05-08T07:47:35.710Z,100795.79
2023-05-08T07:50:02.523Z,100793.63
2023-05-08T07:52:29.241Z,100792.75
2023-05-08T07:54:55.981Z,100793.27
2023-05-08T07:57:22.656Z,100792.97
2023-05-08T07:59:49.284Z,100798.82
2023-05-08T08:02:16.145Z,100797.14
2023-05-08T08:04:42.870Z,100791.97
2023-05-08T08:07:09.527Z,100786.55
2023-05-08T08:09:36.157Z,100787.58
2023-05-08T08:12:03.329Z,100785.42
2023-05-08T08:14:30.069Z,100792.09
2023-05-08T08:16:56.803Z,100783.60
2023-05-08T08:19:23.922Z,100787.98
2023-05-08T08:21:51.102Z,100774.67
2023-05-08T08:24:18.269Z,100773.29
2023-05-08T08:26:44.974Z,100778.55
2023-05-08T08:29:11.618Z,100775.21
2023-05-08T08:31:38.616Z,100773.02
2023-05-08T08:34:05.415Z,100770.33
2023-05-08T08:36:32.799Z,100772.11
2023-05-08T08:38:59.525Z,100769.56
2023-05-08T08:41:28.079Z,100770.67
2023-05-08T08:43:55.440Z,100770.16
2023-05-08T08:46:28.107Z,100768.25
2023-05-08T08:48:56.586Z,100767.52
2023-05-08T08:51:31.890Z,100778.96
2023-05-08T08:54:14.137Z,100783.63
2023-05-08T08:56:44.322Z,100776.36
2023-05-08T08:59:12.548Z,100772.67
2023-05-08T09:01:39.875Z,100774.67
2023-05-08T09:04:07.382Z,100770.13
2023-05-08T09:06:35.998Z,100764.35
2023-05-08T09:09:02.674Z,100767.58
2023-05-08T09:11:29.426Z,100770.79
2023-05-08T09:13:56.149Z,100771.72
2023-05-08T09:16:23.724Z,100772.45
2023-05-08T09:18:50.483Z,100769.81
2023-05-08T09:21:17.251Z,100773.72
2023-05-08T09:24:00.969Z,100773.98
2023-05-08T09:26:35.195Z,100764.98
2023-05-08T09:29:18.236Z,100766.42
2023-05-08T09:31:46.614Z,100770.48
2023-05-08T09:34:28.145Z,100771.86
2023-05-08T09:37:14.160Z,100769.45
2023-05-08T09:39:42.111Z,100765.06
2023-05-08T09:42:08.972Z,100767.98
2023-05-08T09:44:51.833Z,100765.60
2023-05-08T09:47:23.056Z,100761.45
2023-05-08T09:50:04.489Z,100761.23
2023-05-08T09:52:31.767Z,100765.00
2023-05-08T09:55:05.168Z,100759.04
2023-05-08T09:57:33.178Z,100761.98
2023-05-08T10:00:10.194Z,100760.80
2023-05-08T10:02:38.633Z,100755.40
2023-05-08T10:05:22.949Z,100754.33
2023-05-08T10:07:49.810Z,100750.51
2023-05-08T10:10:22.217Z,100748.73
2023-05-08T10:12:48.998Z,100742.80
2023-05-08T10:15:15.654Z,100740.20
2023-05-08T10:17:58.123Z,100739.25
2023-05-08T10:20:25.621Z,100746.73
2023-05-08T10:22:52.276Z,100745.69
2023-05-08T10:25:20.078Z,100738.75
2023-05-08T10:27:58.069Z,100737.73
2023-05-08T10:30:26.043Z,100736.73
2023-05-08T10:32:56.329Z,100737.50
2023-05-08T10:35:23.406Z,100742.64
2023-05-08T10:37:50.168Z,100744.05
2023-05-08T10:40:16.944Z,100750.05
2023-05-08T10:42:43.722Z,100744.63
2023-05-08T10:45:11.436Z,100747.05
2023-05-08T10:48:00.344Z,100745.38
2023-05-08T10:50:56.574Z,100743.40
2023-05-08T10:53:37.819Z,100740.84
2023-05-08T10:56:04.480Z,100743.63
2023-05-08T10:58:32.749Z,100747.52
2023-05-08T11:01:08.717Z,100753.73
2023-05-08T11:03:46.152Z,100755.94
2023-05-08T11:06:13.344Z,100760.06
2023-05-08T11:08:46.668Z,100762.68
2023-05-08T11:11:17.529Z,100765.31
2023-05-08T11:13:50.298Z,100769.20
2023-05-08T11:16:17.112Z,100767.20
2023-05-08T11:19:18.809Z,100767.05
2023-05-08T11:22:11.925Z,100764.26
2023-05-08T11:24:59.466Z,100761.52
2023-05-08T11:27:33.861Z,100758.30
2023-05-08T11:30:23.172Z,100756.52
2023-05-08T11:33:05.341Z,100761.48
2023-05-08T11:35:57.570Z,100758.52
2023-05-08T11:38:33.429Z,100758.06
2023-05-08T11:41:27.661Z,100761.50
2023-05-08T11:44:09.398Z,100755.90
2023-05-08T11:46:58.341Z,100757.94
2023-05-08T11:49:29.046Z,100760.30
2023-05-08T11:51:58.303Z,100758.09
2023-05-08T11:54:25.611Z,100761.05
2023-05-08T11:56:57.227Z,100753.71
2023-05-08T11:59:23.920Z,100754.31
2023-05-08T12:02:06.882Z,100749.45
2023-05-08T12:04:43.579Z,100748.88
2023-05-08T12:07:10.389Z,100743.64
2023-05-08T12:09:38.366Z,100746.98
2023-05-08T12:12:05.231Z,100746.39
2023-05-08T12:14:31.960Z,100741.86
2023-05-08T12:16:58.927Z,100742.27
2023-05-08T12:19:25.611Z,100747.50
2023-05-08T12:21:52.290Z,100747.45
2023-05-08T12:24:23.071Z,100747.44
2023-05-08T12:26:50.691Z,100748.27
2023-05-08T12:29:19.403Z,100750.27
2023-05-08T12:31:46.140Z,100747.52
2023-05-08T12:34:12.877Z,100748.73
2023-05-08T12:36:39.540Z,100753.45
2023-05-08T12:39:17.120Z,100744.29
2023-05-08T12:41:51.025Z,100747.73
2023-05-08T12:44:22.835Z,100743.64
2023-05-08T12:46:51.380Z,100744.02
2023-05-08T12:49:28.891Z,100745.26
2023-05-08T12:52:09.115Z,100747.14
2023-05-08T12:54:37.549Z,100745.56
2023-05-08T12:57:22.848Z,100744.91
2023-05-08T12:59:49.576Z,100739.02
2023-05-08T13:02:17.841Z,100743.45
2023-05-08T13:04:45.004Z,100745.75
2023-05-08T13:07:11.857Z,100743.41
2023-05-08T13:09:39.206Z,100745.95
2023-05-08T13:12:06.974Z,100749.59
2023-05-08T13:14:33.714Z,100751.60
2023-05-08T13:17:00.615Z,100754.61
2023-05-08T13:19:27.743Z,100756.69
2023-05-08T13:21:54.543Z,100759.02
2023-05-08T13:24:21.311Z,100756.66
2023-05-08T13:26:48.050Z,100760.54
2023-05-08T13:29:14.832Z,100762.16
2023-05-08T13:31:41.534Z,100764.61
2023-05-08T13:34:08.366Z,100760.86
2023-05-08T13:36:35.097Z,100761.73
2023-05-08T13:39:01.716Z,100764.03
2023-05-08T13:41:28.388Z,100760.30
2023-05-08T13:43:55.084Z,100765.41
2023-05-08T13:46:21.781Z,100764.70
2023-05-08T13:48:48.540Z,100764.66
2023-05-08T13:51:15.409Z,100767.77
2023-05-08T13:53:42.267Z,100766.44
2023-05-08T13:56:08.885Z,100767.70
2023-05-08T13:58:35.557Z,100767.02
2023-05-08T14:01:13.751Z,100763.38
2023-05-08T14:03:44.857Z,100767.91
2023-05-08T14:06:11.695Z,100766.29
2023-05-08T14:08:45.092Z,100768.27
2023-05-08T14:11:12.808Z,100764.98
2023-05-08T14:13:39.481Z,100767.82
2023-05-08T14:16:08.325Z,100770.00
2023-05-08T14:18:35.093Z,100769.30
2023-05-08T14:21:01.823Z,100770.56
2023-05-08T14:23:28.610Z,100770.52
2023-05-08T14:25:55.426Z,100769.19
2023-05-08T14:30:02.220Z,100776.43
2023-05-08T14:32:28.924Z,100771.75
2023-05-08T14:34:55.717Z,100773.65
2023-05-08T14:37:22.452Z,100773.31
2023-05-08T14:39:54.039Z,100774.71
2023-05-08T14:42:23.659Z,100776.58
2023-05-08T14:44:51.367Z,100773.97
2023-05-08T14:47:18.174Z,100775.02
2023-05-08T14:49:44.853Z,100767.33
2023-05-08T14:52:11.578Z,100766.42
2023-05-08T14:54:38.578Z,100768.76
2023-05-08T14:57:05.392Z,100774.34
2023-05-08T14:59:32.362Z,100773.92
2023-05-08T15:01:59.199Z,100773.73
2023-05-08T15:04:26.001Z,100770.15
2023-05-08T15:06:52.794Z,100769.31
2023-05-08T15:09:19.528Z,100772.16
2023-05-08T15:11:46.257Z,100770.52
2023-05-08T15:14:12.894Z,100774.10
2023-05-08T15:16:39.618Z,100770.09
2023-05-08T15:19:06.366Z,100775.01
2023-05-08T15:21:32.996Z,100778.87
2023-05-08T15:24:00.004Z,100781.94
2023-05-08T15:26:26.658Z,100780.47
2023-05-08T15:28:53.316Z,100780.52
2023-05-08T15:31:20.058Z,100784.02
2023-05-08T15:33:47.828Z,100787.50
2023-05-08T15:36:14.555Z,100786.36
2023-05-08T15:38:41.615Z,100784.41
2023-05-08T15:41:12.100Z,100781.91
2023-05-08T15:43:40.770Z,100780.48
2023-05-08T15:46:07.650Z,100786.39
2023-05-08T15:48:34.432Z,100779.61
2023-05-08T15:51:01.198Z,100783.43
2023-05-08T15:53:27.964Z,100782.69
2023-05-08T15:55:58.503Z,100781.95
2023-05-08T15:58:25.189Z,100787.83
2023-05-08T16:00:52.135Z,100785.30
2023-05-08T16:03:19.208Z,100785.68
2023-05-08T16:05:46.163Z,100790.90
2023-05-08T16:08:13.742Z,100790.52
2023-05-08T16:10:41.169Z,100792.27
2023-05-08T16:13:08.279Z,100795.60
2023-05-08T16:15:35.272Z,100794.88
2023-05-08T16:18:02.969Z,100801.20
2023-05-08T16:20:29.830Z,100804.69
2023-05-08T16:22:56.906Z,100800.92
2023-05-08T16:25:23.755Z,100803.70
2023-05-08T16:27:50.562Z,100804.02
2023-05-08T16:30:18.352Z,100803.43
2023-05-08T16:32:46.178Z,100805.86
2023-05-08T16:35:13.739Z,100807.71
2023-05-08T16:37:40.784Z,100811.05
2023-05-08T16:40:08.424Z,100816.61
2023-05-08T16:42:35.522Z,100813.41
2023-05-08T16:45:05.825Z,100814.83
2023-05-08T16:47:33.251Z,100822.14
2023-05-08T16:50:00.312Z,100829.52
2023-05-08T16:52:27.215Z,100827.80
2023-05-08T16:54:53.848Z,100831.16
2023-05-08T16:57:20.647Z,100837.42
2023-05-08T16:59:47.439Z,100838.02
2023-05-08T17:02:18.852Z,100842.71
2023-05-08T17:04:49.616Z,100849.38
2023-05-08T17:07:16.806Z,100854.58
2023-05-08T17:09:43.725Z,100854.73
2023-05-08T17:12:10.366Z,100860.30
2023-05-08T17:14:40.794Z,100865.70
2023-05-08T17:17:07.733Z,100867.34
2023-05-08T17:19:34.536Z,100873.29
2023-05-08T17:22:01.343Z,100876.77
2023-05-08T17:24:29.954Z,100879.29
2023-05-08T17:26:56.677Z,100881.24
2023-05-08T17:29:23.342Z,100886.63
2023-05-08T17:31:50.109Z,100886.05
2023-05-08T17:34:17.110Z,100890.17
2023-05-08T17:36:43.974Z,100889.25
2023-05-08T17:39:11.602Z,100894.61
2023-05-08T17:41:38.710Z,100897.96
2023-05-08T17:44:05.588Z,100901.30
2023-05-08T17:46:32.326Z,100903.77
2023-05-08T17:48:59.004Z,100907.98
2023-05-08T17:51:25.705Z,100912.38
2023-05-08T17:53:53.152Z,100918.95
2023-05-08T17:56:23.242Z,100922.11
2023-05-08T17:58:51.890Z,100928.52
2023-05-08T18:01:19.434Z,100931.70
2023-05-08T18:03:46.346Z,100936.46
2023-05-08T18:06:16.916Z,100939.42
2023-05-08T18:08:44.398Z,100940.23
2023-05-08T18:11:17.556Z,100943.93
2023-05-08T18:13:44.271Z,100946.70
2023-05-08T18:16:10.967Z,100946.28
2023-05-08T18:18:37.628Z,100948.89
2023-05-08T18:21:04.266Z,100949.00
2023-05-08T18:23:31.390Z,100951.41
2023-05-08T18:25:58.186Z,100950.77
2023-05-08T18:28:24.954Z,100953.05
2023-05-08T18:30:51.773Z,100955.48
2023-05-08T18:33:18.487Z,100958.86
2023-05-08T18:35:45.212Z,100961.80
2023-05-08T18:38:12.081Z,100962.05
2023-05-08T18:40:38.740Z,100964.79
2023-05-08T18:43:05.462Z,100963.73
2023-05-08T18:45:32.117Z,100966.65
2023-05-08T18:47:58.833Z,100971.00
2023-05-08T18:50:25.643Z,100970.21
2023-05-08T18:52:52.679Z,100970.12
2023-05-08T18:55:19.398Z,100970.05
2023-05-08T18:57:46.062Z,100973.17
2023-05-08T19:00:16.108Z,100973.97
2023-05-08T19:02:42.880Z,100976.76
2023-05-08T19:05:10.877Z,100980.94
2023-05-08T19:07:37.747Z,100983.28
2023-05-08T19:10:05.342Z,100982.30
2023-05-08T19:12:32.135Z,100981.63
2023-05-08T19:14:58.796Z,100982.73
2023-05-08T19:17:25.466Z,100987.09
2023-05-08T19:19:52.759Z,100989.86
2023-05-08T19:22:19.488Z,100990.09
2023-05-08T19:24:46.189Z,100989.41
2023-05-08T19:27:12.845Z,100990.88
2023-05-08T19:29:39.664Z,100990.60
2023-05-08T19:32:06.417Z,100994.98
2023-05-08T19:34:35.015Z,100994.89
2023-05-08T19:37:01.901Z,100993.88
2023-05-08T19:39:28.566Z,100995.73
2023-05-08T19:41:55.526Z,100998.14
2023-05-08T19:44:22.159Z,100994.65
2023-05-08T19:46:50.782Z,100994.54
2023-05-08T19:49:17.668Z,100996.45
2023-05-08T19:51:44.458Z,100996.04
2023-05-08T19:54:11.199Z,100997.59
2023-05-08T19:56:37.851Z,100995.77
2023-05-08T19:59:04.481Z,101003.24
2023-05-08T20:01:31.233Z,101005.09
2023-05-08T20:04:00.628Z,101002.84
2023-05-08T20:06:27.616Z,101000.93
2023-05-08T20:08:54.304Z,101001.71
2023-05-08T20:11:21.099Z,101002.16
2023-05-08T20:13:47.803Z,101001.02
2023-05-08T20:16:14.546Z,101003.34
2023-05-08T20:18:41.260Z,101001.91
2023-05-08T20:21:07.926Z,101003.30
2023-05-08T20:23:34.642Z,101004.84
2023-05-08T20:26:01.290Z,101006.75
2023-05-08T20:28:28.115Z,101007.74
2023-05-08T20:30:54.876Z,101010.34
2023-05-08T20:33:21.802Z,101010.80
2023-05-08T20:35:48.460Z,101015.58
2023-05-08T20:38:16.132Z,101013.54
2023-05-08T20:40:42.875Z,101015.08
2023-05-08T20:43:10.401Z,101015.39
2023-05-08T20:45:37.761Z,101013.73
2023-05-08T20:48:04.950Z,101015.07
2023-05-08T20:50:31.655Z,101014.62
2023-05-08T20:52:58.347Z,101015.98
2023-05-08T20:55:25.002Z,101018.95
2023-05-08T20:57:51.664Z,101017.41
2023-05-08T21:00:18.756Z,101017.36
2023-05-08T21:02:45.530Z,101020.70
2023-05-08T21:05:12.508Z,101018.13
2023-05-08T21:07:39.540Z,101023.23
2023-05-08T21:10:06.973Z,101022.24
2023-05-08T21:12:33.686Z,101025.91
2023-05-08T21:15:00.692Z,101027.80
2023-05-08T21:17:27.406Z,101025.91
2023-05-08T21:19:54.324Z,101029.38
2023-05-08T21:22:21.208Z,101029.64
2023-05-08T21:24:47.982Z,101030.98
2023-05-08T21:27:14.595Z,101034.79
2023-05-08T21:29:41.557Z,101036.25
2023-05-08T21:32:10.129Z,101035.77
2023-05-08T21:34:37.116Z,101037.81
2023-05-08T21:37:03.957Z,101038.06
2023-05-08T21:39:30.626Z,101038.29
2023-05-08T21:41:57.278Z,101040.84
2023-05-08T21:44:23.928Z,101037.30
2023-05-08T21:46:50.632Z,101037.52
2023-05-08T21:49:17.484Z,101035.60
2023-05-08T21:51:45.672Z,101037.79
2023-05-08T21:54:12.359Z,101039.30
2023-05-08T21:56:39.247Z,101037.77
2023-05-08T21:59:07.313Z,101034.80
2023-05-08T22:01:34.020Z,101031.97
2023-05-08T22:04:00.836Z,101025.94
2023-05-08T22:06:27.719Z,101026.87
2023-05-08T22:08:54.350Z,101026.52
2023-05-08T22:11:22.314Z,101026.77
2023-05-08T22:13:48.979Z,101028.45
2023-05-08T22:16:15.692Z,101029.94
2023-05-08T22:18:42.493Z,101031.06
2023-05-08T22:21:09.152Z,101031.84
2023-05-08T22:23:35.805Z,101032.96
2023-05-08T22:26:03.217Z,101035.33
2023-05-08T22:28:29.984Z,101033.26
2023-05-08T22:30:56.636Z,101037.75
2023-05-08T22:33:23.363Z,101039.73
2023-05-08T22:35:50.132Z,101041.72
2023-05-08T22:38:16.858Z,101040.30
2023-05-08T22:40:43.657Z,101045.13
2023-05-08T22:43:10.322Z,101041.08
2023-05-08T22:45:37.297Z,101040.21
2023-05-08T22:48:04.433Z,101040.58
2023-05-08T22:50:31.360Z,101043.09
2023-05-08T22:52:58.110Z,101042.23
2023-05-08T22:55:24.873Z,101041.33
2023-05-08T22:57:51.544Z,101042.43
2023-05-08T23:00:18.536Z,101038.33
2023-05-08T23:02:45.385Z,101040.82
2023-05-08T23:05:12.565Z,101040.85
2023-05-08T23:07:39.415Z,101039.42
2023-05-08T23:10:07.064Z,101040.16
2023-05-08T23:12:33.808Z,101040.15
2023-05-08T23:15:00.450Z,101044.06
2023-05-08T23:17:27.248Z,101041.94
2023-05-08T23:19:53.942Z,101044.96
2023-05-08T23:22:20.630Z,101042.83
2023-05-08T23:24:48.209Z,101044.27
2023-05-08T23:27:14.911Z,101044.27
2023-05-08T23:29:41.537Z,101042.84
2023-05-08T23:32:08.160Z,101047.63
2023-05-08T23:34:34.826Z,101048.16
2023-05-08T23:37:01.920Z,101046.39
2023-05-08T23:39:28.693Z,101043.91
2023-05-08T23:41:55.376Z,101041.23
2023-05-08T23:44:21.999Z,101042.69
2023-05-08T23:46:48.939Z,101044.45
2023-05-08T23:49:16.006Z,101045.34
2023-05-08T23:51:42.649Z,101042.48
2023-05-08T23:54:09.312Z,101042.13
2023-05-08T23:56:36.040Z,101044.09
2023-05-08T23:59:02.669Z,101040.70
